createdAt,value
2022-12-18T00:01:07.185Z,-4.32
2022-12-18T00:03:34.808Z,-4.61
2022-12-18T00:06:01.498Z,-4.42
2022-12-18T00:08:28.943Z,-4.45
2022-12-18T00:10:55.527Z,-4.64
2022-12-18T00:13:26.166Z,-4.61
2022-12-18T00:15:54.338Z,-4.63
2022-12-18T00:18:23.159Z,-4.66
2022-12-18T00:20:49.522Z,-4.64
2022-12-18T00:23:15.908Z,-4.70
2022-12-18T00:25:42.386Z,-4.80
2022-12-18T00:28:08.791Z,-4.70
2022-12-18T00:30:35.185Z,-4.87
2022-12-18T00:33:01.599Z,-4.77
2022-12-18T00:35:28.011Z,-4.84
2022-12-18T00:37:54.399Z,-4.94
2022-12-18T00:40:20.886Z,-4.85
2022-12-18T00:42:59.130Z,-4.86
2022-12-18T00:45:31.347Z,-4.88
2022-12-18T00:47:58.397Z,-4.90
2022-12-18T00:50:25.985Z,-4.90
2022-12-18T00:52:53.017Z,-4.91
2022-12-18T00:55:19.794Z,-5.03
2022-12-18T00:57:46.193Z,-5.09
2022-12-18T01:00:14.934Z,-4.98
2022-12-18T01:02:42.127Z,-5.18
2022-12-18T01:05:10.875Z,-5.07
2022-12-18T01:07:37.583Z,-5.12
2022-12-18T01:10:05.368Z,-5.16
2022-12-18T01:12:32.057Z,-5.22
2022-12-18T01:14:58.558Z,-5.47
2022-12-18T01:17:24.997Z,-5.34
2022-12-18T01:19:51.394Z,-5.19
2022-12-18T01:22:17.784Z,-5.18
2022-12-18T01:24:44.221Z,-5.22
2022-12-18T01:27:10.765Z,-5.24
2022-12-18T01:29:37.197Z,-5.15
2022-12-18T01:32:03.790Z,-5.16
2022-12-18T01:34:30.246Z,-5.16
2022-12-18T01:36:56.703Z,-5.17
2022-12-18T01:39:23.273Z,-5.21
2022-12-18T01:42:04.652Z,-5.21
2022-12-18T01:44:58.514Z,-5.13
2022-12-18T01:47:39.375Z,-5.13
2022-12-18T01:50:18.618Z,-5.15
2022-12-18T01:52:48.600Z,-5.13
2022-12-18T01:55:17.121Z,-5.10
2022-12-18T01:57:43.721Z,-5.40
2022-12-18T02:00:17.399Z,-5.19
2022-12-18T02:02:46.076Z,-5.23
2022-12-18T02:05:15.861Z,-5.26
2022-12-18T02:07:54.234Z,-5.28
2022-12-18T02:10:48.088Z,-5.30
2022-12-18T02:13:22.450Z,-5.42
2022-12-18T02:16:30.010Z,-5.40
2022-12-18T02:19:01.270Z,-5.39
2022-12-18T02:22:02.359Z,-5.34
2022-12-18T02:24:53.720Z,-5.58
2022-12-18T02:27:20.572Z,-5.38
2022-12-18T02:29:58.656Z,-5.36
2022-12-18T02:32:29.006Z,-5.38
2022-12-18T02:34:57.193Z,-5.35
2022-12-18T02:37:26.762Z,-5.47
2022-12-18T02:39:55.902Z,-5.52
2022-12-18T02:42:23.289Z,-5.54
2022-12-18T02:44:51.904Z,-5.59
2022-12-18T02:47:22.785Z,-5.65
2022-12-18T02:50:23.072Z,-5.60
2022-12-18T02:53:18.305Z,-5.64
2022-12-18T02:55:53.772Z,-5.68
2022-12-18T02:58:31.513Z,-5.69
2022-12-18T03:01:16.797Z,-5.76
2022-12-18T03:03:51.357Z,-5.77
2022-12-18T03:06:27.903Z,-5.73
2022-12-18T03:09:00.169Z,-5.73
2022-12-18T03:11:48.344Z,-5.91
2022-12-18T03:14:17.580Z,-5.76
2022-12-18T03:16:45.725Z,-5.85
2022-12-18T03:19:19.805Z,-6.03
2022-12-18T03:21:50.532Z,-5.85
2022-12-18T03:24:20.723Z,-5.88
2022-12-18T03:26:51.952Z,-5.88
2022-12-18T03:29:23.539Z,-6.15
2022-12-18T03:31:55.953Z,-5.88
2022-12-18T03:34:30.554Z,-5.88
2022-12-18T03:36:57.240Z,-6.01
2022-12-18T03:39:23.712Z,-5.94
2022-12-18T03:42:02.256Z,-5.90
2022-12-18T03:44:56.833Z,-5.90
2022-12-18T03:47:44.973Z,-5.89
2022-12-18T03:50:21.552Z,-6.08
2022-12-18T03:52:54.171Z,-5.87
2022-12-18T03:55:22.800Z,-5.97
2022-12-18T03:57:50.352Z,-5.86
2022-12-18T04:00:20.147Z,-5.91
2022-12-18T04:02:53.820Z,-5.89
2022-12-18T04:05:21.616Z,-5.95
2022-12-18T04:07:50.538Z,-5.91
2022-12-18T04:10:18.007Z,-5.90
2022-12-18T04:12:44.826Z,-6.13
2022-12-18T04:15:13.017Z,-5.92
2022-12-18T04:17:41.143Z,-5.96
2022-12-18T04:20:07.984Z,-6.06
2022-12-18T04:22:34.493Z,-5.95
2022-12-18T04:25:01.188Z,-5.85
2022-12-18T04:27:27.745Z,-5.93
2022-12-18T04:29:54.151Z,-5.84
2022-12-18T04:32:20.600Z,-5.99
2022-12-18T04:34:47.031Z,-5.84
2022-12-18T04:37:13.581Z,-5.86
2022-12-18T04:39:40.211Z,-5.99
2022-12-18T04:42:06.766Z,-5.96
2022-12-18T04:44:33.186Z,-5.96
2022-12-18T04:46:59.684Z,-5.99
2022-12-18T04:49:26.180Z,-6.07
2022-12-18T04:51:53.889Z,-6.16
2022-12-18T04:54:20.456Z,-6.27
2022-12-18T04:56:47.683Z,-6.13
2022-12-18T04:59:14.217Z,-6.32
2022-12-18T05:01:40.887Z,-6.43
2022-12-18T05:04:07.768Z,-6.22
2022-12-18T05:06:34.178Z,-6.24
2022-12-18T05:09:00.606Z,-6.24
2022-12-18T05:11:27.045Z,-6.35
2022-12-18T05:13:53.495Z,-6.26
2022-12-18T05:16:19.993Z,-6.36
2022-12-18T05:18:46.447Z,-6.26
2022-12-18T05:21:13.116Z,-6.43
2022-12-18T05:23:39.826Z,-6.38
2022-12-18T05:26:07.576Z,-6.29
2022-12-18T05:28:35.871Z,-6.37
2022-12-18T05:31:04.503Z,-6.42
2022-12-18T05:33:33.975Z,-6.27
2022-12-18T05:36:05.840Z,-6.22
2022-12-18T05:38:34.135Z,-6.20
2022-12-18T05:41:00.935Z,-6.25
2022-12-18T05:43:28.224Z,-6.14
2022-12-18T05:45:55.410Z,-6.12
2022-12-18T05:48:24.945Z,-6.08
2022-12-18T05:50:52.017Z,-6.07
2022-12-18T05:53:20.807Z,-6.00
2022-12-18T05:55:48.030Z,-5.96
2022-12-18T05:58:15.587Z,-5.91
2022-12-18T06:00:44.153Z,-5.85
2022-12-18T06:03:13.492Z,-5.85
2022-12-18T06:05:45.052Z,-5.82
2022-12-18T06:08:13.292Z,-5.76
2022-12-18T06:10:40.823Z,-5.73
2022-12-18T06:13:07.873Z,-5.79
2022-12-18T06:15:37.350Z,-5.94
2022-12-18T06:18:04.199Z,-5.72
2022-12-18T06:20:33.411Z,-5.80
2022-12-18T06:23:00.536Z,-5.74
2022-12-18T06:25:27.129Z,-5.89
2022-12-18T06:27:53.524Z,-5.70
2022-12-18T06:30:20.690Z,-5.75
2022-12-18T06:32:53.056Z,-5.74
2022-12-18T06:35:22.809Z,-5.92
2022-12-18T06:37:49.397Z,-5.70
2022-12-18T06:40:15.788Z,-5.69
2022-12-18T06:42:42.216Z,-5.72
2022-12-18T06:45:09.163Z,-5.69
2022-12-18T06:47:35.611Z,-5.72
2022-12-18T06:50:02.021Z,-5.64
2022-12-18T06:52:28.509Z,-5.62
2022-12-18T06:54:54.949Z,-5.59
2022-12-18T06:57:21.976Z,-5.58
2022-12-18T06:59:48.342Z,-5.57
2022-12-18T07:02:15.126Z,-5.61
2022-12-18T07:04:41.814Z,-5.55
2022-12-18T07:07:08.182Z,-5.53
2022-12-18T07:09:34.713Z,-5.52
2022-12-18T07:12:01.198Z,-5.51
2022-12-18T07:14:27.822Z,-5.60
2022-12-18T07:16:54.896Z,-5.53
2022-12-18T07:19:21.454Z,-5.54
2022-12-18T07:21:48.030Z,-5.46
2022-12-18T07:24:14.443Z,-5.47
2022-12-18T07:26:40.989Z,-5.55
2022-12-18T07:29:07.396Z,-5.44
2022-12-18T07:31:33.830Z,-5.44
2022-12-18T07:34:00.384Z,-5.42
2022-12-18T07:36:26.965Z,-5.55
2022-12-18T07:38:53.876Z,-5.42
2022-12-18T07:41:20.858Z,-5.48
2022-12-18T07:43:48.090Z,-5.43
2022-12-18T07:46:16.575Z,-5.51
2022-12-18T07:48:44.791Z,-5.42
2022-12-18T07:51:13.410Z,-5.38
2022-12-18T07:53:40.740Z,-5.36
2022-12-18T07:56:28.082Z,-5.49
2022-12-18T07:58:55.979Z,-5.33
2022-12-18T08:01:22.526Z,-5.35
2022-12-18T08:03:49.047Z,-5.25
2022-12-18T08:06:17.672Z,-5.21
2022-12-18T08:08:44.128Z,-5.16
2022-12-18T08:11:10.487Z,-5.14
2022-12-18T08:13:37.284Z,-5.16
2022-12-18T08:16:06.693Z,-5.12
2022-12-18T08:18:34.831Z,-5.09
2022-12-18T08:21:12.392Z,-5.06
2022-12-18T08:23:42.545Z,-5.03
2022-12-18T08:26:19.128Z,-4.99
2022-12-18T08:28:46.113Z,-4.94
2022-12-18T08:31:12.839Z,-4.91
2022-12-18T08:33:40.596Z,-4.85
2022-12-18T08:36:09.497Z,-4.79
2022-12-18T08:38:35.962Z,-4.81
2022-12-18T08:41:12.040Z,-4.67
2022-12-18T08:43:57.700Z,-4.60
2022-12-18T08:46:28.748Z,-4.57
2022-12-18T08:48:56.991Z,-4.48
2022-12-18T08:51:23.816Z,-4.36
2022-12-18T08:53:50.403Z,-4.28
2022-12-18T08:56:17.088Z,-4.27
2022-12-18T08:58:43.728Z,-4.11
2022-12-18T09:01:12.205Z,-4.04
2022-12-18T09:03:39.700Z,-3.96
2022-12-18T09:06:07.082Z,-3.88
2022-12-18T09:08:37.829Z,-3.79
2022-12-18T09:11:04.835Z,-3.72
2022-12-18T09:13:31.328Z,-3.66
2022-12-18T09:15:57.976Z,-3.57
2022-12-18T09:18:25.156Z,-3.45
2022-12-18T09:20:53.660Z,-3.35
2022-12-18T09:23:20.876Z,-3.29
2022-12-18T09:25:47.335Z,-3.35
2022-12-18T09:28:15.587Z,-3.23
2022-12-18T09:30:45.154Z,-3.08
2022-12-18T09:33:11.973Z,-2.98
2022-12-18T09:35:39.861Z,-2.89
2022-12-18T09:38:06.921Z,-2.90
2022-12-18T09:40:41.083Z,-2.79
2022-12-18T09:43:11.854Z,-2.70
2022-12-18T09:45:53.443Z,-2.61
2022-12-18T09:48:29.178Z,-2.61
2022-12-18T09:51:01.643Z,-2.50
2022-12-18T09:53:33.557Z,-2.38
2022-12-18T09:56:04.181Z,-2.30
2022-12-18T09:58:46.247Z,-2.19
2022-12-18T10:01:22.064Z,-2.07
2022-12-18T10:03:49.036Z,-2.12
2022-12-18T10:06:40.324Z,-1.77
2022-12-18T10:09:22.467Z,-1.66
2022-12-18T10:12:08.004Z,-1.45
2022-12-18T10:14:49.407Z,-1.26
2022-12-18T10:17:24.987Z,-1.10
2022-12-18T10:20:02.494Z,-0.90
2022-12-18T10:23:00.325Z,-0.68
2022-12-18T10:25:36.228Z,-0.49
2022-12-18T10:28:14.749Z,-0.26
2022-12-18T10:30:43.414Z,-0.11
2022-12-18T10:33:19.481Z,0.05
2022-12-18T10:35:48.011Z,0.17
2022-12-18T10:38:17.515Z,0.32
2022-12-18T10:40:57.739Z,0.45
2022-12-18T10:43:26.152Z,0.65
2022-12-18T10:46:03.470Z,0.57
2022-12-18T10:48:31.442Z,0.63
2022-12-18T10:51:13.987Z,0.85
2022-12-18T10:53:43.566Z,0.94
2022-12-18T10:56:10.391Z,1.15
2022-12-18T10:58:39.631Z,1.30
2022-12-18T11:01:18.229Z,1.40
2022-12-18T11:03:47.017Z,1.53
2022-12-18T11:06:16.164Z,1.82
2022-12-18T11:08:45.673Z,1.95
2022-12-18T11:11:22.812Z,2.08
2022-12-18T11:14:05.381Z,2.24
2022-12-18T11:16:57.890Z,2.34
2022-12-18T11:19:38.077Z,2.43
2022-12-18T11:22:27.396Z,2.48
2022-12-18T11:25:30.327Z,2.45
2022-12-18T11:28:23.810Z,2.45
2022-12-18T11:30:50.239Z,2.33
2022-12-18T11:33:21.714Z,2.29
2022-12-18T11:35:55.268Z,2.19
2022-12-18T11:38:27.743Z,2.11
2022-12-18T11:41:03.159Z,2.06
2022-12-18T11:43:39.670Z,1.97
2022-12-18T11:46:20.382Z,2.01
2022-12-18T11:49:18.278Z,2.10
2022-12-18T11:51:59.780Z,2.17
2022-12-18T11:54:26.221Z,2.10
2022-12-18T11:57:35.850Z,2.33
2022-12-18T12:00:15.903Z,2.44
2022-12-18T12:03:16.621Z,2.48
2022-12-18T12:06:02.693Z,2.48
2022-12-18T12:08:52.948Z,2.44
2022-12-18T12:11:19.234Z,2.50
2022-12-18T12:14:10.190Z,2.33
2022-12-18T12:16:49.897Z,2.20
2022-12-18T12:19:38.265Z,2.13
2022-12-18T12:22:18.159Z,1.93
2022-12-18T12:25:00.431Z,1.75
2022-12-18T12:27:36.593Z,1.67
2022-12-18T12:30:06.539Z,1.67
2022-12-18T12:33:06.607Z,1.62
2022-12-18T12:35:52.057Z,1.58
2022-12-18T12:38:27.416Z,1.29
2022-12-18T12:41:04.224Z,1.47
2022-12-18T12:43:47.878Z,1.50
2022-12-18T12:46:19.880Z,1.59
2022-12-18T12:48:50.049Z,1.74
2022-12-18T12:51:35.973Z,1.94
2022-12-18T12:54:05.938Z,2.12
2022-12-18T12:57:08.105Z,2.34
2022-12-18T13:00:11.266Z,2.46
2022-12-18T13:02:41.005Z,2.51
2022-12-18T13:05:20.069Z,2.57
2022-12-18T13:08:00.475Z,2.54
2022-12-18T13:10:44.226Z,2.64
2022-12-18T13:13:13.103Z,2.69
2022-12-18T13:15:40.617Z,2.75
2022-12-18T13:18:10.159Z,2.80
2022-12-18T13:20:41.099Z,2.82
2022-12-18T13:23:26.121Z,2.87
2022-12-18T13:25:59.853Z,2.75
2022-12-18T13:28:44.445Z,2.70
2022-12-18T13:31:11.117Z,2.61
2022-12-18T13:34:16.578Z,2.32
2022-12-18T13:36:32.675Z,2.30
2022-12-18T13:39:29.992Z,2.18
2022-12-18T13:42:05.660Z,2.02
2022-12-18T13:44:40.222Z,1.83
2022-12-18T13:47:34.739Z,1.74
2022-12-18T13:50:10.405Z,1.57
2022-12-18T13:52:40.299Z,1.45
2022-12-18T13:55:17.033Z,1.36
2022-12-18T13:57:43.483Z,1.23
2022-12-18T14:00:26.089Z,1.14
2022-12-18T14:02:53.222Z,1.01
2022-12-18T14:05:34.464Z,0.93
2022-12-18T14:08:12.046Z,0.83
2022-12-18T14:10:49.937Z,0.66
2022-12-18T14:13:24.158Z,0.59
2022-12-18T14:15:51.443Z,0.55
2022-12-18T14:18:32.961Z,0.52
2022-12-18T14:21:02.616Z,0.42
2022-12-18T14:23:41.939Z,0.37
2022-12-18T14:26:28.938Z,0.11
2022-12-18T14:29:02.208Z,0.04
2022-12-18T14:31:31.414Z,-0.04
2022-12-18T14:33:57.909Z,0.07
2022-12-18T14:36:26.993Z,-0.01
2022-12-18T14:38:55.648Z,-0.08
2022-12-18T14:41:23.035Z,-0.14
2022-12-18T14:43:52.769Z,-0.32
2022-12-18T14:46:43.325Z,-0.24
2022-12-18T14:49:35.552Z,-0.35
2022-12-18T14:52:06.383Z,-0.48
2022-12-18T14:54:37.940Z,-0.42
2022-12-18T14:57:35.258Z,-0.48
2022-12-18T15:00:06.720Z,-0.54
2022-12-18T15:02:36.876Z,-0.58
2022-12-18T15:05:11.309Z,-0.58
2022-12-18T15:07:44.421Z,-0.68
2022-12-18T15:10:14.719Z,-0.76
2022-12-18T15:13:06.999Z,-0.85
2022-12-18T15:15:46.079Z,-0.87
2022-12-18T15:18:19.152Z,-0.90
2022-12-18T15:20:46.009Z,-0.95
2022-12-18T15:23:23.665Z,-1.20
2022-12-18T15:25:58.427Z,-1.06
2022-12-18T15:28:36.232Z,-1.15
2022-12-18T15:31:04.207Z,-1.15
2022-12-18T15:33:33.750Z,-1.18
2022-12-18T15:36:03.489Z,-1.28
2022-12-18T15:38:30.496Z,-1.24
2022-12-18T15:40:57.856Z,-1.24
2022-12-18T15:43:34.625Z,-1.24
2022-12-18T15:46:14.316Z,-1.21
2022-12-18T15:48:49.142Z,-1.18
2022-12-18T15:51:25.188Z,-1.20
2022-12-18T15:53:55.469Z,-1.15
2022-12-18T15:56:40.451Z,-1.32
2022-12-18T15:59:25.109Z,-1.04
2022-12-18T16:01:53.942Z,-1.06
2022-12-18T16:04:22.411Z,-1.01
2022-12-18T16:09:36.695Z,-0.95
2022-12-18T16:12:03.279Z,-1.04
2022-12-18T16:14:30.786Z,-0.96
2022-12-18T16:16:59.770Z,-0.90
2022-12-18T16:19:27.082Z,-1.00
2022-12-18T16:21:56.092Z,-0.84
2022-12-18T16:24:28.336Z,-0.80
2022-12-18T16:26:56.518Z,-0.86
2022-12-18T16:29:27.738Z,-0.81
2022-12-18T16:31:59.436Z,-0.80
2022-12-18T16:34:29.328Z,-0.81
2022-12-18T16:37:06.190Z,-0.88
2022-12-18T16:39:37.376Z,-0.75
2022-12-18T16:42:07.250Z,-0.75
2022-12-18T16:44:34.662Z,-0.79
2022-12-18T16:47:03.332Z,-0.76
2022-12-18T16:49:30.974Z,-0.77
2022-12-18T16:51:58.036Z,-0.92
2022-12-18T16:54:24.941Z,-0.77
2022-12-18T16:56:52.129Z,-0.87
2022-12-18T16:59:18.597Z,-0.88
2022-12-18T17:01:45.209Z,-0.81
2022-12-18T17:04:11.943Z,-0.85
2022-12-18T17:06:44.797Z,-0.86
2022-12-18T17:09:18.276Z,-0.86
2022-12-18T17:11:44.719Z,-0.93
2022-12-18T17:14:23.033Z,-0.82
2022-12-18T17:17:07.249Z,-0.85
2022-12-18T17:19:34.283Z,-0.89
2022-12-18T17:22:00.780Z,-0.86
2022-12-18T17:24:31.409Z,-0.92
2022-12-18T17:27:00.835Z,-0.87
2022-12-18T17:29:27.245Z,-0.87
2022-12-18T17:31:53.695Z,-0.97
2022-12-18T17:34:22.024Z,-0.83
2022-12-18T17:36:48.571Z,-0.81
2022-12-18T17:39:19.188Z,-0.82
2022-12-18T17:41:46.106Z,-0.83
2022-12-18T17:44:12.831Z,-0.85
2022-12-18T17:46:39.438Z,-0.85
2022-12-18T17:49:06.133Z,-0.81
2022-12-18T17:51:32.580Z,-0.77
2022-12-18T17:53:59.063Z,-0.77
2022-12-18T17:56:26.159Z,-0.78
2022-12-18T17:58:52.647Z,-0.77
2022-12-18T18:01:23.257Z,-0.75
2022-12-18T18:03:50.976Z,-0.76
2022-12-18T18:06:20.360Z,-0.75
2022-12-18T18:08:47.059Z,-0.75
2022-12-18T18:11:35.685Z,-0.76
2022-12-18T18:14:05.174Z,-0.71
2022-12-18T18:16:35.187Z,-0.68
2022-12-18T18:19:04.342Z,-0.76
2022-12-18T18:21:32.082Z,-0.67
2022-12-18T18:24:03.054Z,-0.65
2022-12-18T18:26:31.180Z,-0.59
2022-12-18T18:28:59.851Z,-0.62
2022-12-18T18:31:29.988Z,-0.65
2022-12-18T18:33:57.174Z,-0.81
2022-12-18T18:36:24.309Z,-0.64
2022-12-18T18:38:51.731Z,-0.63
2022-12-18T18:41:19.035Z,-0.62
2022-12-18T18:43:45.756Z,-0.67
2022-12-18T18:46:15.761Z,-0.73
2022-12-18T18:48:43.736Z,-0.65
2022-12-18T18:51:15.601Z,-0.72
2022-12-18T18:53:49.839Z,-0.62
2022-12-18T18:56:45.612Z,-0.62
2022-12-18T18:59:05.819Z,-0.69
2022-12-18T19:01:32.930Z,-0.60
2022-12-18T19:04:02.574Z,-0.65
2022-12-18T19:06:29.840Z,-0.81
2022-12-18T19:08:57.348Z,-0.67
2022-12-18T19:11:44.293Z,-0.71
2022-12-18T19:14:13.326Z,-0.65
2022-12-18T19:16:40.218Z,-0.54
2022-12-18T19:19:08.105Z,-0.52
2022-12-18T19:21:35.584Z,-0.53
2022-12-18T19:24:02.839Z,-0.57
2022-12-18T19:26:30.375Z,-0.52
2022-12-18T19:29:23.294Z,-0.51
2022-12-18T19:31:49.733Z,-0.50
2022-12-18T19:34:16.168Z,-0.50
2022-12-18T19:36:42.622Z,-0.52
2022-12-18T19:39:14.816Z,-0.54
2022-12-18T19:41:42.358Z,-0.48
2022-12-18T19:44:11.837Z,-0.48
2022-12-18T19:46:41.627Z,-0.46
2022-12-18T19:49:11.418Z,-0.46
2022-12-18T19:51:42.954Z,-0.46
2022-12-18T19:54:13.349Z,-0.44
2022-12-18T19:56:43.405Z,-0.48
2022-12-18T19:59:10.042Z,-0.48
2022-12-18T20:01:36.568Z,-0.45
2022-12-18T20:04:03.374Z,-0.44
2022-12-18T20:06:36.172Z,-0.41
2022-12-18T20:09:06.048Z,-0.41
2022-12-18T20:11:36.388Z,-0.38
2022-12-18T20:14:08.446Z,-0.40
2022-12-18T20:16:35.320Z,-0.37
2022-12-18T20:19:02.227Z,-0.34
2022-12-18T20:21:31.854Z,-0.39
2022-12-18T20:23:59.880Z,-0.29
2022-12-18T20:26:26.844Z,-0.31
2022-12-18T20:28:54.491Z,-0.27
2022-12-18T20:31:21.011Z,-0.44
2022-12-18T20:33:49.840Z,-0.24
2022-12-18T20:36:21.359Z,-0.22
2022-12-18T20:38:51.822Z,-0.22
2022-12-18T20:41:22.590Z,-0.20
2022-12-18T20:43:49.026Z,-0.21
2022-12-18T20:46:18.800Z,-0.21
2022-12-18T20:48:48.234Z,-0.17
2022-12-18T20:51:17.101Z,-0.17
2022-12-18T20:53:43.911Z,-0.13
2022-12-18T20:56:21.616Z,-0.11
2022-12-18T20:58:49.782Z,-0.08
2022-12-18T21:01:19.137Z,-0.18
2022-12-18T21:03:47.075Z,-0.08
2022-12-18T21:06:15.530Z,-0.06
2022-12-18T21:08:42.353Z,-0.04
2022-12-18T21:11:46.944Z,-0.02
2022-12-18T21:14:16.571Z,-0.04
2022-12-18T21:16:44.083Z,-0.02
2022-12-18T21:19:19.092Z,0.01
2022-12-18T21:21:47.241Z,-0.03
2022-12-18T21:24:13.623Z,-0.07
2022-12-18T21:26:45.483Z,-0.10
2022-12-18T21:29:15.619Z,-0.09
2022-12-18T21:31:42.792Z,-0.10
2022-12-18T21:34:15.569Z,-0.04
2022-12-18T21:36:42.091Z,-0.18
2022-12-18T21:39:08.689Z,-0.05
2022-12-18T21:41:53.770Z,-0.10
2022-12-18T21:44:22.287Z,-0.05
2022-12-18T21:46:55.179Z,-0.19
2022-12-18T21:49:24.296Z,-0.05
2022-12-18T21:51:53.694Z,-0.05
2022-12-18T21:54:20.914Z,-0.04
2022-12-18T21:56:58.436Z,-0.05
2022-12-18T21:59:26.225Z,-0.18
2022-12-18T22:01:54.842Z,-0.04
2022-12-18T22:04:21.747Z,-0.07
2022-12-18T22:06:48.703Z,-0.15
2022-12-18T22:09:17.389Z,-0.05
2022-12-18T22:11:44.513Z,-0.01
2022-12-18T22:14:11.913Z,-0.08
2022-12-18T22:16:38.370Z,-0.07
2022-12-18T22:19:06.602Z,-0.08
2022-12-18T22:21:35.520Z,0.01
2022-12-18T22:24:04.445Z,-0.02
2022-12-18T22:26:39.305Z,0.01
2022-12-18T22:29:25.171Z,0.02
2022-12-18T22:31:52.463Z,0.05
2022-12-18T22:34:22.840Z,-0.04
2022-12-18T22:36:49.852Z,0.09
2022-12-18T22:39:22.012Z,0.06
2022-12-18T22:41:49.034Z,0.05
2022-12-18T22:44:18.078Z,0.11
2022-12-18T22:46:49.325Z,0.12
2022-12-18T22:49:24.670Z,0.15
2022-12-18T22:51:52.440Z,0.14
2022-12-18T22:54:19.112Z,0.14
2022-12-18T22:56:49.092Z,0.21
2022-12-18T22:59:17.824Z,0.18
2022-12-18T23:01:48.045Z,0.22
2022-12-18T23:04:16.194Z,0.07
2022-12-18T23:06:43.412Z,0.22
2022-12-18T23:09:19.145Z,0.22
2022-12-18T23:11:46.690Z,0.23
2022-12-18T23:14:13.500Z,0.18
2022-12-18T23:16:40.053Z,0.24
2022-12-18T23:19:06.963Z,0.26
2022-12-18T23:21:33.390Z,0.27
2022-12-18T23:24:00.689Z,0.24
2022-12-18T23:26:27.489Z,0.21
2022-12-18T23:28:56.399Z,0.25
2022-12-18T23:31:29.192Z,0.22
2022-12-18T23:33:57.516Z,0.14
2022-12-18T23:36:24.419Z,0.24
2022-12-18T23:38:52.955Z,0.23
2022-12-18T23:41:21.362Z,0.28
2022-12-18T23:43:48.005Z,0.26
2022-12-18T23:46:25.273Z,0.31
2022-12-18T23:48:52.217Z,0.27
2022-12-18T23:51:23.344Z,0.28
2022-12-18T23:53:50.277Z,0.31
2022-12-18T23:56:16.727Z,0.26
2022-12-18T23:58:43.980Z,0.25
